createdAt,value
2018-05-03T00:02:40.406Z,8.30
2018-05-03T00:05:44.589Z,8.43
2018-05-03T00:08:47.915Z,8.77
2018-05-03T00:11:52.090Z,7.73
2018-05-03T00:14:55.418Z,8.30
2018-05-03T00:17:58.769Z,8.40
2018-05-03T00:21:02.107Z,7.90
2018-05-03T00:24:05.452Z,8.30
2018-05-03T00:27:08.764Z,9.00
2018-05-03T00:30:12.213Z,9.20
2018-05-03T00:33:16.315Z,8.60
2018-05-03T00:36:19.713Z,8.63
2018-05-03T00:39:23.056Z,8.23
2018-05-03T00:42:26.415Z,8.13
2018-05-03T00:45:29.721Z,8.47
2018-05-03T00:48:33.048Z,8.43
2018-05-03T00:51:36.377Z,8.60
2018-05-03T00:54:48.401Z,8.97
2018-05-03T00:57:51.749Z,8.17
2018-05-03T01:00:55.070Z,8.20
2018-05-03T01:03:58.402Z,8.90
2018-05-03T01:07:01.722Z,8.33
2018-05-03T01:10:05.810Z,8.80
2018-05-03T01:13:09.141Z,9.37
2018-05-03T01:16:13.207Z,9.13
2018-05-03T01:19:16.516Z,8.50
2018-05-03T01:22:19.820Z,8.53
2018-05-03T01:25:23.145Z,8.80
2018-05-03T01:28:27.225Z,9.43
2018-05-03T01:31:30.581Z,9.00
2018-05-03T01:34:33.908Z,9.20
2018-05-03T01:37:37.238Z,9.83
2018-05-03T01:40:40.623Z,9.47
2018-05-03T01:43:44.013Z,10.20
2018-05-03T01:46:47.329Z,9.33
2018-05-03T01:49:50.719Z,9.07
2018-05-03T01:52:54.119Z,9.23
2018-05-03T01:55:57.522Z,9.40
2018-05-03T01:59:00.831Z,8.97
2018-05-03T02:02:04.136Z,10.03
2018-05-03T02:05:07.457Z,9.30
2018-05-03T02:08:12.157Z,10.20
2018-05-03T02:11:15.547Z,10.27
2018-05-03T02:14:18.945Z,11.07
2018-05-03T02:17:22.250Z,9.17
2018-05-03T02:20:25.645Z,9.70
2018-05-03T02:23:28.973Z,10.53
2018-05-03T02:26:33.046Z,10.30
2018-05-03T02:29:36.456Z,10.47
2018-05-03T02:32:39.791Z,10.50
2018-05-03T02:35:43.873Z,10.30
2018-05-03T02:38:47.256Z,10.50
2018-05-03T02:41:50.667Z,10.33
2018-05-03T02:44:54.065Z,10.77
2018-05-03T02:47:57.461Z,10.40
2018-05-03T02:51:00.873Z,10.53
2018-05-03T02:54:04.203Z,10.50
2018-05-03T02:57:26.196Z,11.00
2018-05-03T03:00:53.059Z,11.10
2018-05-03T03:04:20.062Z,10.83
2018-05-03T03:11:49.321Z,10.80
2018-05-03T03:15:15.917Z,10.40
2018-05-03T03:18:42.741Z,11.73
2018-05-03T03:22:09.576Z,11.93
2018-05-03T03:29:43.936Z,12.50
2018-05-03T03:33:05.271Z,12.67
2018-05-03T03:40:25.681Z,13.00
2018-05-03T03:43:46.801Z,13.47
2018-05-03T03:46:50.200Z,13.97
2018-05-03T03:49:53.606Z,14.10
2018-05-03T03:52:56.927Z,14.17
2018-05-03T03:56:01.014Z,15.37
2018-05-03T03:59:04.427Z,15.13
2018-05-03T04:02:07.804Z,16.73
2018-05-03T04:05:11.214Z,16.47
2018-05-03T04:08:14.545Z,17.27
2018-05-03T04:11:18.635Z,20.30
2018-05-03T04:14:22.027Z,18.97
2018-05-03T04:17:43.247Z,20.57
2018-05-03T04:21:15.080Z,19.40
2018-05-03T04:24:36.066Z,21.80
2018-05-03T04:27:40.161Z,21.60
2018-05-03T04:30:43.539Z,21.50
2018-05-03T04:33:46.937Z,21.40
2018-05-03T04:36:50.337Z,21.83
2018-05-03T04:39:53.738Z,18.27
2018-05-03T04:42:57.056Z,10.47
2018-05-03T04:46:00.442Z,4.33
2018-05-03T04:49:03.824Z,4.80
2018-05-03T04:52:07.157Z,4.53
2018-05-03T04:55:10.542Z,4.20
2018-05-03T04:58:13.864Z,4.47
2018-05-03T05:01:17.229Z,4.70
2018-05-03T05:04:20.642Z,5.43
2018-05-03T05:07:24.034Z,4.40
2018-05-03T05:10:27.497Z,4.53
2018-05-03T05:13:30.834Z,4.13
2018-05-03T05:16:34.225Z,4.57
2018-05-03T05:19:37.526Z,4.10
2018-05-03T05:22:40.924Z,4.73
2018-05-03T05:25:44.313Z,5.47
2018-05-03T05:28:47.729Z,3.93
2018-05-03T05:31:51.030Z,3.10
2018-05-03T05:34:54.391Z,3.07
2018-05-03T05:37:57.692Z,2.50
2018-05-03T05:41:01.039Z,2.43
2018-05-03T05:44:04.347Z,2.90
2018-05-03T05:47:07.672Z,1.87
2018-05-03T05:50:11.750Z,2.30
2018-05-03T05:53:15.073Z,2.13
2018-05-03T05:56:19.140Z,2.53
2018-05-03T05:59:22.478Z,2.93
2018-05-03T06:02:26.555Z,2.13
2018-05-03T06:05:30.016Z,1.80
2018-05-03T06:08:33.356Z,2.60
2018-05-03T06:11:36.756Z,2.50
2018-05-03T06:14:40.082Z,2.43
2018-05-03T06:17:43.509Z,2.77
2018-05-03T06:20:46.809Z,2.03
2018-05-03T06:23:50.158Z,2.37
2018-05-03T06:26:53.469Z,2.17
2018-05-03T06:29:56.850Z,2.00
2018-05-03T06:33:00.154Z,2.37
2018-05-03T06:36:03.489Z,2.43
2018-05-03T06:39:07.556Z,2.40
2018-05-03T06:42:10.886Z,2.73
2018-05-03T06:45:14.276Z,2.53
2018-05-03T06:48:17.547Z,2.00
2018-05-03T06:51:20.863Z,2.30
2018-05-03T06:54:24.257Z,3.03
2018-05-03T06:57:27.570Z,2.23
2018-05-03T07:00:30.892Z,2.40
2018-05-03T07:03:34.971Z,2.97
2018-05-03T07:06:38.370Z,2.60
2018-05-03T07:09:41.668Z,2.47
2018-05-03T07:12:45.223Z,2.53
2018-05-03T07:15:48.521Z,2.97
2018-05-03T07:18:51.869Z,2.93
2018-05-03T07:21:55.183Z,3.13
2018-05-03T07:24:58.535Z,2.73
2018-05-03T07:28:01.851Z,2.43
2018-05-03T07:31:05.180Z,2.77
2018-05-03T07:34:08.559Z,2.30
2018-05-03T07:37:11.957Z,2.13
2018-05-03T07:40:15.264Z,2.53
2018-05-03T07:43:18.653Z,2.20
2018-05-03T07:46:21.965Z,3.03
2018-05-03T07:49:25.303Z,2.57
2018-05-03T07:52:28.623Z,2.07
2018-05-03T07:55:31.955Z,2.40
2018-05-03T07:58:35.355Z,2.07
2018-05-03T08:01:39.561Z,2.67
2018-05-03T08:04:42.866Z,2.17
2018-05-03T08:07:46.268Z,2.50
2018-05-03T08:10:49.652Z,2.30
2018-05-03T08:13:53.052Z,2.10
2018-05-03T08:16:56.483Z,2.00
2018-05-03T08:19:59.864Z,1.80
2018-05-03T08:23:03.182Z,2.13
2018-05-03T08:26:08.036Z,2.23
2018-05-03T08:29:12.110Z,1.80
2018-05-03T08:32:15.508Z,2.03
2018-05-03T08:35:18.826Z,2.00
2018-05-03T08:38:22.177Z,2.07
2018-05-03T08:41:25.490Z,1.60
2018-05-03T08:44:28.894Z,1.87
2018-05-03T08:47:33.020Z,2.10
2018-05-03T08:50:36.422Z,2.10
2018-05-03T08:53:39.720Z,2.30
2018-05-03T08:56:43.070Z,1.70
2018-05-03T08:59:46.388Z,2.00
2018-05-03T09:02:49.757Z,1.53
2018-05-03T09:05:53.920Z,1.83
2018-05-03T09:08:57.334Z,1.90
2018-05-03T09:12:00.723Z,1.80
2018-05-03T09:15:04.176Z,1.50
2018-05-03T09:18:07.448Z,1.70
2018-05-03T09:21:10.840Z,1.77
2018-05-03T09:24:14.230Z,2.13
2018-05-03T09:27:17.565Z,1.70
2018-05-03T09:30:21.638Z,2.07
2018-05-03T09:33:24.986Z,1.80
2018-05-03T09:36:29.063Z,2.33
2018-05-03T09:39:32.463Z,1.80
2018-05-03T09:42:36.821Z,2.10
2018-05-03T09:45:40.938Z,2.30
2018-05-03T09:48:45.006Z,2.00
2018-05-03T09:51:48.360Z,2.27
2018-05-03T09:54:52.520Z,1.90
2018-05-03T09:57:55.852Z,1.87
2018-05-03T10:00:59.246Z,1.70
2018-05-03T10:04:02.647Z,2.13
2018-05-03T10:07:05.979Z,1.30
2018-05-03T10:10:09.313Z,2.37
2018-05-03T10:13:12.753Z,1.53
2018-05-03T10:16:16.117Z,1.63
2018-05-03T10:19:19.430Z,1.60
2018-05-03T10:22:22.885Z,0.93
2018-05-03T10:25:26.203Z,1.33
2018-05-03T10:28:29.521Z,1.47
2018-05-03T10:31:32.837Z,1.40
2018-05-03T10:34:36.176Z,1.23
2018-05-03T10:37:39.473Z,1.57
2018-05-03T10:40:42.937Z,1.60
2018-05-03T10:43:46.312Z,1.33
2018-05-03T10:46:49.664Z,1.13
2018-05-03T10:49:53.069Z,0.80
2018-05-03T10:52:56.402Z,1.47
2018-05-03T10:55:59.720Z,1.30
2018-05-03T10:59:03.058Z,1.00
2018-05-03T11:02:06.357Z,1.33
2018-05-03T11:05:09.825Z,1.07
2018-05-03T11:08:13.131Z,1.13
2018-05-03T11:11:16.493Z,1.20
2018-05-03T11:14:19.857Z,1.13
2018-05-03T11:17:23.305Z,1.10
2018-05-03T11:20:26.633Z,1.33
2018-05-03T11:23:30.736Z,1.20
2018-05-03T11:26:34.071Z,1.17
2018-05-03T11:29:37.399Z,1.20
2018-05-03T11:32:40.709Z,1.20
2018-05-03T11:35:44.060Z,1.20
2018-05-03T11:38:47.370Z,1.20
2018-05-03T11:41:50.805Z,1.07
2018-05-03T11:44:54.119Z,1.10
2018-05-03T11:47:57.522Z,1.00
2018-05-03T11:51:00.847Z,1.00
2018-05-03T11:54:05.000Z,1.17
2018-05-03T11:57:08.352Z,1.10
2018-05-03T12:00:11.698Z,1.00
2018-05-03T12:03:15.118Z,1.07
2018-05-03T12:06:18.513Z,1.00
2018-05-03T12:09:21.929Z,1.30
2018-05-03T12:12:25.282Z,1.07
2018-05-03T12:15:28.595Z,0.90
2018-05-03T12:18:31.969Z,0.90
2018-05-03T12:21:35.272Z,1.10
2018-05-03T12:24:38.606Z,1.07
2018-05-03T12:27:42.023Z,1.37
2018-05-03T12:30:45.409Z,1.30
2018-05-03T12:33:48.729Z,1.17
2018-05-03T12:36:52.113Z,0.80
2018-05-03T12:39:55.506Z,1.20
2018-05-03T12:42:58.906Z,0.70
2018-05-03T12:46:02.222Z,0.73
2018-05-03T12:49:05.565Z,1.00
2018-05-03T12:52:09.527Z,0.93
2018-05-03T12:55:12.891Z,0.73
2018-05-03T12:58:16.217Z,1.10
2018-05-03T13:01:19.694Z,0.83
2018-05-03T13:04:23.728Z,1.07
2018-05-03T13:07:27.143Z,0.73
2018-05-03T13:10:30.475Z,0.73
2018-05-03T13:13:34.600Z,0.90
2018-05-03T13:16:37.924Z,0.77
2018-05-03T13:19:41.332Z,0.80
2018-05-03T13:22:44.637Z,1.00
2018-05-03T13:25:48.038Z,0.90
2018-05-03T13:28:51.342Z,1.20
2018-05-03T13:31:54.685Z,1.00
2018-05-03T13:34:58.776Z,0.60
2018-05-03T13:38:02.142Z,1.30
2018-05-03T13:41:05.485Z,1.10
2018-05-03T13:44:09.620Z,0.90
2018-05-03T13:47:12.960Z,1.13
2018-05-03T13:50:16.303Z,1.10
2018-05-03T13:53:20.491Z,8.87
2018-05-03T13:56:24.566Z,0.90
2018-05-03T13:59:27.883Z,1.03
2018-05-03T14:02:31.229Z,1.50
2018-05-03T14:05:35.426Z,1.03
2018-05-03T14:08:38.770Z,1.03
2018-05-03T14:11:42.076Z,1.07
2018-05-03T14:14:45.517Z,1.10
2018-05-03T14:17:48.826Z,0.90
2018-05-03T14:20:53.104Z,0.80
2018-05-03T14:23:56.367Z,0.90
2018-05-03T14:27:00.538Z,1.03
2018-05-03T14:30:03.850Z,1.10
2018-05-03T14:33:07.197Z,1.30
2018-05-03T14:36:10.503Z,1.47
2018-05-03T14:39:13.950Z,1.00
2018-05-03T14:42:17.268Z,1.23
2018-05-03T14:45:20.630Z,1.20
2018-05-03T14:48:24.069Z,1.10
2018-05-03T14:51:27.432Z,0.90
2018-05-03T14:54:30.836Z,0.97
2018-05-03T14:57:34.254Z,1.00
2018-05-03T15:00:37.588Z,0.90
2018-05-03T15:03:41.768Z,1.10
2018-05-03T15:06:45.165Z,0.70
2018-05-03T15:09:48.562Z,1.17
2018-05-03T15:12:51.954Z,1.13
2018-05-03T15:15:55.290Z,0.83
2018-05-03T15:18:59.476Z,0.80
2018-05-03T15:22:02.874Z,1.10
2018-05-03T15:25:06.469Z,0.90
2018-05-03T15:28:09.819Z,0.70
2018-05-03T15:31:13.899Z,0.73
2018-05-03T15:34:17.248Z,1.00
2018-05-03T15:37:20.574Z,0.80
2018-05-03T15:40:23.995Z,1.10
2018-05-03T15:43:27.391Z,0.70
2018-05-03T15:46:30.749Z,0.90
2018-05-03T15:49:34.062Z,0.53
2018-05-03T15:52:37.462Z,0.60
2018-05-03T15:55:40.856Z,0.77
2018-05-03T15:58:44.143Z,0.70
2018-05-03T16:01:47.458Z,0.63
2018-05-03T16:04:50.793Z,0.70
2018-05-03T16:07:54.197Z,1.13
2018-05-03T16:10:57.545Z,0.80
2018-05-03T16:14:00.863Z,0.80
2018-05-03T16:17:04.222Z,0.80
2018-05-03T16:20:08.297Z,0.73
2018-05-03T16:23:11.701Z,0.90
2018-05-03T16:26:15.044Z,1.00
2018-05-03T16:29:18.505Z,0.80
2018-05-03T16:32:21.874Z,1.00
2018-05-03T16:35:25.232Z,0.77
2018-05-03T16:38:29.396Z,0.97
2018-05-03T16:41:32.801Z,0.80
2018-05-03T16:44:36.210Z,0.87
2018-05-03T16:47:39.607Z,1.20
2018-05-03T16:50:42.917Z,1.07
2018-05-03T16:53:46.313Z,1.13
2018-05-03T16:56:49.626Z,1.40
2018-05-03T16:59:54.494Z,0.93
2018-05-03T17:02:57.811Z,1.47
2018-05-03T17:06:01.241Z,1.00
2018-05-03T17:09:04.582Z,1.00
2018-05-03T17:12:08.762Z,1.10
2018-05-03T17:15:12.795Z,0.80
2018-05-03T17:18:16.221Z,1.03
2018-05-03T17:21:19.528Z,0.90
2018-05-03T17:24:22.967Z,0.80
2018-05-03T17:27:26.280Z,1.20
2018-05-03T17:30:29.676Z,1.30
2018-05-03T17:33:33.071Z,1.53
2018-05-03T17:36:36.401Z,1.40
2018-05-03T17:39:40.491Z,1.03
2018-05-03T17:42:43.830Z,1.20
2018-05-03T17:45:47.154Z,1.50
2018-05-03T17:48:50.585Z,1.30
2018-05-03T17:51:53.904Z,1.10
2018-05-03T17:54:58.103Z,1.30
2018-05-03T17:58:01.482Z,0.93
2018-05-03T18:01:04.898Z,1.10
2018-05-03T18:04:08.174Z,1.10
2018-05-03T18:07:11.519Z,1.37
2018-05-03T18:10:14.892Z,1.40
2018-05-03T18:13:18.292Z,1.40
2018-05-03T18:16:21.704Z,1.37
2018-05-03T18:19:24.985Z,1.50
2018-05-03T18:22:28.374Z,1.40
2018-05-03T18:25:31.731Z,1.17
2018-05-03T18:28:35.813Z,1.13
2018-05-03T18:31:39.161Z,1.67
2018-05-03T18:34:42.468Z,1.63
2018-05-03T18:37:45.814Z,1.40
2018-05-03T18:40:49.120Z,1.33
2018-05-03T18:43:52.514Z,1.40
2018-05-03T18:46:55.824Z,1.27
2018-05-03T18:50:00.021Z,1.60
2018-05-03T18:53:03.406Z,1.33
2018-05-03T18:56:06.819Z,1.83
2018-05-03T18:59:10.164Z,1.60
2018-05-03T19:02:13.515Z,2.00
2018-05-03T19:05:16.909Z,1.40
2018-05-03T19:08:20.256Z,1.63
2018-05-03T19:11:23.616Z,1.30
2018-05-03T19:14:26.967Z,1.47
2018-05-03T19:17:30.283Z,1.90
2018-05-03T19:20:33.688Z,1.30
2018-05-03T19:23:36.970Z,2.17
2018-05-03T19:26:40.386Z,1.47
2018-05-03T19:29:43.714Z,1.90
2018-05-03T19:32:47.086Z,1.70
2018-05-03T19:35:50.406Z,1.40
2018-05-03T19:38:53.845Z,1.90
2018-05-03T19:41:57.183Z,1.50
2018-05-03T19:45:00.514Z,2.30
2018-05-03T19:48:03.823Z,2.00
2018-05-03T19:51:08.023Z,1.50
2018-05-03T19:54:11.331Z,1.57
2018-05-03T19:57:14.700Z,1.80
2018-05-03T20:00:18.031Z,1.70
2018-05-03T20:03:22.226Z,2.03
2018-05-03T20:06:25.527Z,1.80
2018-05-03T20:09:28.906Z,1.57
2018-05-03T20:12:32.398Z,1.97
2018-05-03T20:15:35.780Z,2.00
2018-05-03T20:18:39.130Z,1.83
2018-05-03T20:21:42.509Z,1.60
2018-05-03T20:24:45.829Z,1.93
2018-05-03T20:27:49.218Z,1.93
2018-05-03T20:30:52.733Z,2.07
2018-05-03T20:33:56.119Z,1.83
2018-05-03T20:36:59.513Z,2.50
2018-05-03T20:40:03.105Z,2.63
2018-05-03T20:43:06.420Z,1.83
2018-05-03T20:46:09.887Z,1.90
2018-05-03T20:49:13.275Z,2.07
2018-05-03T20:52:16.716Z,2.07
2018-05-03T20:55:20.293Z,2.30
2018-05-03T20:58:23.726Z,2.53
2018-05-03T21:01:27.042Z,2.60
2018-05-03T21:04:30.386Z,2.13
2018-05-03T21:07:33.750Z,2.40
2018-05-03T21:10:37.953Z,3.20
2018-05-03T21:13:41.268Z,1.90
2018-05-03T21:16:44.616Z,2.30
2018-05-03T21:19:47.959Z,2.30
2018-05-03T21:22:51.502Z,2.47
2018-05-03T21:25:54.810Z,2.67
2018-05-03T21:28:58.234Z,2.33
2018-05-03T21:32:01.625Z,2.67
2018-05-03T21:35:04.961Z,2.60
2018-05-03T21:38:08.262Z,2.70
2018-05-03T21:41:12.446Z,2.73
2018-05-03T21:44:15.755Z,2.60
2018-05-03T21:47:19.101Z,2.23
2018-05-03T21:50:22.445Z,2.37
2018-05-03T21:53:25.806Z,2.67
2018-05-03T21:56:29.131Z,2.90
2018-05-03T21:59:32.456Z,2.73
2018-05-03T22:02:35.858Z,2.20
2018-05-03T22:05:39.197Z,3.27
2018-05-03T22:08:42.516Z,3.10
2018-05-03T22:11:45.837Z,2.57
2018-05-03T22:14:49.264Z,2.60
2018-05-03T22:17:52.640Z,3.20
2018-05-03T22:20:55.943Z,3.00
2018-05-03T22:23:59.277Z,3.10
2018-05-03T22:27:03.441Z,2.70
2018-05-03T22:30:06.802Z,3.00
2018-05-03T22:33:10.141Z,3.80
2018-05-03T22:36:13.541Z,3.00
2018-05-03T22:39:16.856Z,2.57
2018-05-03T22:42:20.248Z,3.60
2018-05-03T22:45:23.565Z,2.73
2018-05-03T22:48:26.874Z,3.50
2018-05-03T22:51:31.055Z,3.37
2018-05-03T22:54:34.389Z,3.30
2018-05-03T22:57:38.462Z,3.30
2018-05-03T23:00:41.778Z,3.10
2018-05-03T23:03:45.161Z,3.50
2018-05-03T23:06:48.462Z,3.20
2018-05-03T23:09:51.858Z,3.40
2018-05-03T23:12:55.167Z,4.03
2018-05-03T23:15:58.521Z,3.37
2018-05-03T23:19:01.817Z,4.13
2018-05-03T23:22:05.160Z,3.60
2018-05-03T23:25:08.479Z,3.53
2018-05-03T23:28:11.850Z,3.90
2018-05-03T23:31:15.148Z,4.17
2018-05-03T23:34:18.444Z,3.67
2018-05-03T23:37:21.773Z,3.43
2018-05-03T23:40:25.072Z,4.53
2018-05-03T23:43:28.370Z,3.63
2018-05-03T23:46:31.749Z,4.23
2018-05-03T23:49:35.123Z,4.00
2018-05-03T23:52:38.425Z,3.90
2018-05-03T23:55:41.747Z,4.07
2018-05-03T23:58:45.138Z,5.03
